sensor_id;sensor_type;location;lat;lon;timestamp;P1;durP1;ratioP1;P2;durP2;ratioP2
60675;SDS011;46716;38.014;-7.874;2022-11-20T00:01:40;16.10;;;6.22;;
60675;SDS011;46716;38.014;-7.874;2022-11-20T00:03:46;15.88;;;6.65;;
60675;SDS011;46716;38.014;-7.874;2022-11-20T00:05:48;15.43;;;5.60;;
60675;SDS011;46716;38.014;-7.874;2022-11-20T00:07:51;14.50;;;5.47;;
60675;SDS011;46716;38.014;-7.874;2022-11-20T00:10:51;17.95;;;5.97;;
60675;SDS011;46716;38.014;-7.874;2022-11-20T00:13:04;17.98;;;6.10;;
60675;SDS011;46716;38.014;-7.874;2022-11-20T00:15:11;17.30;;;5.82;;
60675;SDS011;46716;38.014;-7.874;2022-11-20T00:17:34;17.77;;;5.25;;
60675;SDS011;46716;38.014;-7.874;2022-11-20T00:23:24;17.25;;;6.05;;
60675;SDS011;46716;38.014;-7.874;2022-11-20T00:25:50;16.75;;;6.43;;
60675;SDS011;46716;38.014;-7.874;2022-11-20T00:27:52;15.43;;;5.70;;
60675;SDS011;46716;38.014;-7.874;2022-11-20T00:29:53;14.13;;;5.25;;
60675;SDS011;46716;38.014;-7.874;2022-11-20T00:31:54;16.25;;;5.53;;
60675;SDS011;46716;38.014;-7.874;2022-11-20T00:33:55;13.55;;;5.15;;
60675;SDS011;46716;38.014;-7.874;2022-11-20T00:36:06;15.23;;;5.00;;
60675;SDS011;46716;38.014;-7.874;2022-11-20T00:38:09;20.17;;;5.85;;
60675;SDS011;46716;38.014;-7.874;2022-11-20T00:40:10;16.98;;;5.68;;
60675;SDS011;46716;38.014;-7.874;2022-11-20T00:42:11;14.57;;;5.20;;
60675;SDS011;46716;38.014;-7.874;2022-11-20T00:44:13;14.73;;;5.30;;
60675;SDS011;46716;38.014;-7.874;2022-11-20T00:46:15;24.00;;;5.45;;
60675;SDS011;46716;38.014;-7.874;2022-11-20T00:48:20;19.33;;;4.85;;
60675;SDS011;46716;38.014;-7.874;2022-11-20T00:50:23;16.55;;;5.32;;
60675;SDS011;46716;38.014;-7.874;2022-11-20T00:52:27;15.15;;;5.18;;
60675;SDS011;46716;38.014;-7.874;2022-11-20T00:54:28;19.15;;;5.68;;
60675;SDS011;46716;38.014;-7.874;2022-11-20T00:56:40;14.95;;;5.15;;
60675;SDS011;46716;38.014;-7.874;2022-11-20T00:58:42;17.02;;;5.03;;
60675;SDS011;46716;38.014;-7.874;2022-11-20T01:00:49;20.90;;;4.88;;
60675;SDS011;46716;38.014;-7.874;2022-11-20T01:02:52;14.88;;;5.75;;
60675;SDS011;46716;38.014;-7.874;2022-11-20T01:04:54;18.88;;;5.22;;
60675;SDS011;46716;38.014;-7.874;2022-11-20T01:07:04;17.63;;;4.53;;
60675;SDS011;46716;38.014;-7.874;2022-11-20T01:09:12;18.63;;;4.70;;
60675;SDS011;46716;38.014;-7.874;2022-11-20T01:11:15;16.20;;;5.18;;
60675;SDS011;46716;38.014;-7.874;2022-11-20T01:13:21;14.07;;;4.50;;
60675;SDS011;46716;38.014;-7.874;2022-11-20T01:15:37;13.85;;;4.13;;
60675;SDS011;46716;38.014;-7.874;2022-11-20T01:17:38;13.80;;;5.00;;
60675;SDS011;46716;38.014;-7.874;2022-11-20T01:19:39;14.55;;;5.43;;
60675;SDS011;46716;38.014;-7.874;2022-11-20T01:21:42;14.70;;;5.35;;
60675;SDS011;46716;38.014;-7.874;2022-11-20T01:25:44;14.85;;;4.75;;
60675;SDS011;46716;38.014;-7.874;2022-11-20T01:27:50;10.13;;;3.72;;
60675;SDS011;46716;38.014;-7.874;2022-11-20T01:29:56;12.90;;;4.65;;
60675;SDS011;46716;38.014;-7.874;2022-11-20T01:31:57;13.65;;;5.10;;
60675;SDS011;46716;38.014;-7.874;2022-11-20T01:33:59;21.83;;;6.50;;
60675;SDS011;46716;38.014;-7.874;2022-11-20T01:36:04;14.55;;;5.28;;
60675;SDS011;46716;38.014;-7.874;2022-11-20T01:38:07;11.85;;;4.45;;
60675;SDS011;46716;38.014;-7.874;2022-11-20T01:40:09;14.25;;;4.78;;
60675;SDS011;46716;38.014;-7.874;2022-11-20T01:42:10;18.33;;;5.50;;
60675;SDS011;46716;38.014;-7.874;2022-11-20T01:47:02;11.70;;;4.32;;
60675;SDS011;46716;38.014;-7.874;2022-11-20T01:49:55;13.77;;;4.40;;
60675;SDS011;46716;38.014;-7.874;2022-11-20T01:52:38;12.70;;;3.30;;
60675;SDS011;46716;38.014;-7.874;2022-11-20T01:54:38;16.58;;;4.18;;
60675;SDS011;46716;38.014;-7.874;2022-11-20T01:56:44;9.90;;;3.20;;
60675;SDS011;46716;38.014;-7.874;2022-11-20T01:58:49;10.07;;;3.80;;
60675;SDS011;46716;38.014;-7.874;2022-11-20T02:00:53;13.70;;;3.75;;
60675;SDS011;46716;38.014;-7.874;2022-11-20T02:02:55;11.13;;;4.25;;
60675;SDS011;46716;38.014;-7.874;2022-11-20T02:05:00;12.63;;;3.72;;
60675;SDS011;46716;38.014;-7.874;2022-11-20T02:07:10;10.68;;;3.80;;
60675;SDS011;46716;38.014;-7.874;2022-11-20T02:09:12;11.85;;;4.00;;
60675;SDS011;46716;38.014;-7.874;2022-11-20T02:11:14;12.30;;;3.30;;
60675;SDS011;46716;38.014;-7.874;2022-11-20T02:13:18;11.73;;;3.58;;
60675;SDS011;46716;38.014;-7.874;2022-11-20T02:17:38;10.30;;;3.80;;
60675;SDS011;46716;38.014;-7.874;2022-11-20T02:19:40;10.70;;;3.80;;
60675;SDS011;46716;38.014;-7.874;2022-11-20T02:26:08;13.23;;;4.00;;
60675;SDS011;46716;38.014;-7.874;2022-11-20T02:28:13;9.88;;;4.15;;
60675;SDS011;46716;38.014;-7.874;2022-11-20T02:30:15;13.33;;;3.97;;
60675;SDS011;46716;38.014;-7.874;2022-11-20T02:32:20;12.18;;;4.13;;
60675;SDS011;46716;38.014;-7.874;2022-11-20T02:34:23;14.20;;;4.78;;
60675;SDS011;46716;38.014;-7.874;2022-11-20T02:36:26;15.32;;;4.32;;
60675;SDS011;46716;38.014;-7.874;2022-11-20T02:38:28;13.43;;;4.10;;
60675;SDS011;46716;38.014;-7.874;2022-11-20T02:40:29;14.30;;;4.93;;
60675;SDS011;46716;38.014;-7.874;2022-11-20T02:42:30;17.40;;;5.20;;
60675;SDS011;46716;38.014;-7.874;2022-11-20T02:44:31;24.10;;;5.28;;
60675;SDS011;46716;38.014;-7.874;2022-11-20T02:46:32;13.52;;;4.32;;
60675;SDS011;46716;38.014;-7.874;2022-11-20T02:48:33;15.25;;;4.28;;
60675;SDS011;46716;38.014;-7.874;2022-11-20T02:50:37;16.83;;;4.95;;
60675;SDS011;46716;38.014;-7.874;2022-11-20T02:52:40;12.38;;;5.53;;
60675;SDS011;46716;38.014;-7.874;2022-11-20T02:54:41;15.07;;;4.43;;
60675;SDS011;46716;38.014;-7.874;2022-11-20T02:56:46;12.15;;;3.97;;
60675;SDS011;46716;38.014;-7.874;2022-11-20T02:59:27;10.85;;;4.22;;
60675;SDS011;46716;38.014;-7.874;2022-11-20T03:01:28;15.82;;;4.60;;
60675;SDS011;46716;38.014;-7.874;2022-11-20T03:03:29;14.50;;;4.22;;
60675;SDS011;46716;38.014;-7.874;2022-11-20T03:05:33;12.15;;;5.35;;
60675;SDS011;46716;38.014;-7.874;2022-11-20T03:07:54;16.87;;;4.87;;
60675;SDS011;46716;38.014;-7.874;2022-11-20T03:09:54;12.70;;;5.28;;
60675;SDS011;46716;38.014;-7.874;2022-11-20T03:11:57;13.05;;;5.03;;
60675;SDS011;46716;38.014;-7.874;2022-11-20T03:14:03;13.13;;;5.47;;
60675;SDS011;46716;38.014;-7.874;2022-11-20T03:16:06;12.82;;;6.45;;
60675;SDS011;46716;38.014;-7.874;2022-11-20T03:18:15;13.77;;;6.60;;
60675;SDS011;46716;38.014;-7.874;2022-11-20T03:20:24;16.13;;;7.43;;
60675;SDS011;46716;38.014;-7.874;2022-11-20T03:22:25;18.67;;;7.30;;
60675;SDS011;46716;38.014;-7.874;2022-11-20T03:24:30;19.13;;;6.13;;
60675;SDS011;46716;38.014;-7.874;2022-11-20T03:26:38;13.20;;;5.93;;
60675;SDS011;46716;38.014;-7.874;2022-11-20T03:28:40;12.88;;;6.03;;
60675;SDS011;46716;38.014;-7.874;2022-11-20T03:30:51;17.50;;;5.93;;
60675;SDS011;46716;38.014;-7.874;2022-11-20T03:32:53;14.75;;;5.82;;
60675;SDS011;46716;38.014;-7.874;2022-11-20T03:34:54;14.27;;;6.47;;
60675;SDS011;46716;38.014;-7.874;2022-11-20T03:36:56;18.17;;;7.40;;
60675;SDS011;46716;38.014;-7.874;2022-11-20T03:38:57;14.35;;;6.97;;
60675;SDS011;46716;38.014;-7.874;2022-11-20T03:41:02;13.32;;;6.43;;
60675;SDS011;46716;38.014;-7.874;2022-11-20T03:43:19;12.60;;;5.85;;
60675;SDS011;46716;38.014;-7.874;2022-11-20T03:46:13;13.57;;;5.75;;
60675;SDS011;46716;38.014;-7.874;2022-11-20T03:48:20;11.13;;;4.70;;
60675;SDS011;46716;38.014;-7.874;2022-11-20T03:50:31;12.20;;;4.38;;
60675;SDS011;46716;38.014;-7.874;2022-11-20T03:52:40;12.55;;;4.97;;
60675;SDS011;46716;38.014;-7.874;2022-11-20T03:54:56;11.88;;;4.43;;
60675;SDS011;46716;38.014;-7.874;2022-11-20T03:57:00;11.05;;;4.47;;
60675;SDS011;46716;38.014;-7.874;2022-11-20T03:59:30;9.40;;;4.10;;
60675;SDS011;46716;38.014;-7.874;2022-11-20T04:02:00;11.60;;;4.20;;
60675;SDS011;46716;38.014;-7.874;2022-11-20T04:04:10;9.75;;;3.28;;
60675;SDS011;46716;38.014;-7.874;2022-11-20T04:09:21;9.82;;;3.53;;
60675;SDS011;46716;38.014;-7.874;2022-11-20T04:11:33;15.02;;;3.85;;
60675;SDS011;46716;38.014;-7.874;2022-11-20T04:14:00;13.80;;;5.60;;
60675;SDS011;46716;38.014;-7.874;2022-11-20T04:16:16;10.75;;;4.13;;
60675;SDS011;46716;38.014;-7.874;2022-11-20T04:18:44;13.90;;;3.85;;
60675;SDS011;46716;38.014;-7.874;2022-11-20T04:20:49;10.23;;;4.28;;
60675;SDS011;46716;38.014;-7.874;2022-11-20T04:23:18;8.43;;;3.80;;
60675;SDS011;46716;38.014;-7.874;2022-11-20T04:25:22;10.45;;;4.60;;
60675;SDS011;46716;38.014;-7.874;2022-11-20T04:27:30;12.02;;;4.15;;
60675;SDS011;46716;38.014;-7.874;2022-11-20T04:29:31;12.50;;;4.20;;
60675;SDS011;46716;38.014;-7.874;2022-11-20T04:31:33;12.10;;;4.60;;
60675;SDS011;46716;38.014;-7.874;2022-11-20T04:33:36;10.43;;;4.30;;
60675;SDS011;46716;38.014;-7.874;2022-11-20T04:35:38;13.68;;;4.38;;
60675;SDS011;46716;38.014;-7.874;2022-11-20T04:37:41;8.68;;;3.63;;
60675;SDS011;46716;38.014;-7.874;2022-11-20T04:39:43;11.20;;;4.43;;
60675;SDS011;46716;38.014;-7.874;2022-11-20T04:41:44;10.15;;;3.38;;
60675;SDS011;46716;38.014;-7.874;2022-11-20T04:43:46;13.93;;;4.03;;
60675;SDS011;46716;38.014;-7.874;2022-11-20T04:45:51;10.15;;;3.75;;
60675;SDS011;46716;38.014;-7.874;2022-11-20T04:49:54;12.40;;;3.85;;
60675;SDS011;46716;38.014;-7.874;2022-11-20T04:51:57;13.10;;;4.63;;
60675;SDS011;46716;38.014;-7.874;2022-11-20T04:53:58;11.18;;;3.85;;
60675;SDS011;46716;38.014;-7.874;2022-11-20T04:56:03;11.60;;;3.47;;
60675;SDS011;46716;38.014;-7.874;2022-11-20T04:58:08;17.10;;;4.80;;
60675;SDS011;46716;38.014;-7.874;2022-11-20T05:00:09;9.73;;;3.58;;
60675;SDS011;46716;38.014;-7.874;2022-11-20T05:02:10;10.88;;;3.95;;
60675;SDS011;46716;38.014;-7.874;2022-11-20T05:04:12;11.93;;;4.10;;
60675;SDS011;46716;38.014;-7.874;2022-11-20T05:06:16;11.38;;;3.85;;
60675;SDS011;46716;38.014;-7.874;2022-11-20T05:08:19;10.65;;;4.38;;
60675;SDS011;46716;38.014;-7.874;2022-11-20T05:10:19;9.90;;;3.72;;
60675;SDS011;46716;38.014;-7.874;2022-11-20T05:12:25;11.65;;;4.25;;
60675;SDS011;46716;38.014;-7.874;2022-11-20T05:14:25;17.25;;;4.43;;
60675;SDS011;46716;38.014;-7.874;2022-11-20T05:16:28;17.13;;;3.90;;
60675;SDS011;46716;38.014;-7.874;2022-11-20T05:18:29;16.02;;;4.55;;
60675;SDS011;46716;38.014;-7.874;2022-11-20T05:20:30;28.80;;;4.63;;
60675;SDS011;46716;38.014;-7.874;2022-11-20T05:22:33;65.75;;;7.35;;
60675;SDS011;46716;38.014;-7.874;2022-11-20T05:24:36;51.35;;;5.60;;
60675;SDS011;46716;38.014;-7.874;2022-11-20T05:26:42;54.55;;;6.75;;
60675;SDS011;46716;38.014;-7.874;2022-11-20T05:28:43;30.40;;;5.40;;
60675;SDS011;46716;38.014;-7.874;2022-11-20T05:30:44;22.45;;;4.20;;
60675;SDS011;46716;38.014;-7.874;2022-11-20T05:32:46;10.77;;;3.67;;
60675;SDS011;46716;38.014;-7.874;2022-11-20T05:34:46;14.80;;;4.18;;
60675;SDS011;46716;38.014;-7.874;2022-11-20T05:36:47;12.85;;;4.18;;
60675;SDS011;46716;38.014;-7.874;2022-11-20T05:38:48;10.57;;;4.53;;
60675;SDS011;46716;38.014;-7.874;2022-11-20T05:40:50;12.30;;;4.28;;
60675;SDS011;46716;38.014;-7.874;2022-11-20T05:42:51;9.85;;;3.53;;
60675;SDS011;46716;38.014;-7.874;2022-11-20T05:44:52;9.88;;;3.13;;
60675;SDS011;46716;38.014;-7.874;2022-11-20T05:46:53;11.85;;;3.25;;
60675;SDS011;46716;38.014;-7.874;2022-11-20T05:48:57;12.73;;;4.45;;
60675;SDS011;46716;38.014;-7.874;2022-11-20T05:50:58;10.73;;;3.70;;
60675;SDS011;46716;38.014;-7.874;2022-11-20T05:53:03;13.80;;;4.38;;
60675;SDS011;46716;38.014;-7.874;2022-11-20T05:55:04;8.55;;;3.25;;
60675;SDS011;46716;38.014;-7.874;2022-11-20T05:57:06;9.80;;;3.95;;
60675;SDS011;46716;38.014;-7.874;2022-11-20T05:59:09;13.07;;;3.72;;
60675;SDS011;46716;38.014;-7.874;2022-11-20T06:01:24;12.45;;;4.50;;
60675;SDS011;46716;38.014;-7.874;2022-11-20T06:03:26;12.38;;;3.70;;
60675;SDS011;46716;38.014;-7.874;2022-11-20T06:05:27;13.55;;;3.80;;
60675;SDS011;46716;38.014;-7.874;2022-11-20T06:07:28;12.52;;;3.80;;
60675;SDS011;46716;38.014;-7.874;2022-11-20T06:09:29;12.25;;;4.32;;
60675;SDS011;46716;38.014;-7.874;2022-11-20T06:11:30;13.55;;;4.05;;
60675;SDS011;46716;38.014;-7.874;2022-11-20T06:13:31;12.18;;;3.83;;
60675;SDS011;46716;38.014;-7.874;2022-11-20T06:15:32;10.32;;;3.97;;
60675;SDS011;46716;38.014;-7.874;2022-11-20T06:17:33;11.85;;;3.85;;
60675;SDS011;46716;38.014;-7.874;2022-11-20T06:19:37;9.40;;;3.58;;
60675;SDS011;46716;38.014;-7.874;2022-11-20T06:21:38;12.80;;;3.90;;
60675;SDS011;46716;38.014;-7.874;2022-11-20T06:23:39;11.77;;;3.80;;
60675;SDS011;46716;38.014;-7.874;2022-11-20T06:25:41;8.27;;;3.23;;
60675;SDS011;46716;38.014;-7.874;2022-11-20T06:27:43;10.73;;;3.92;;
60675;SDS011;46716;38.014;-7.874;2022-11-20T06:29:44;12.10;;;4.13;;
60675;SDS011;46716;38.014;-7.874;2022-11-20T06:31:45;10.57;;;4.07;;
60675;SDS011;46716;38.014;-7.874;2022-11-20T06:33:46;12.68;;;3.80;;
60675;SDS011;46716;38.014;-7.874;2022-11-20T06:35:48;12.45;;;4.07;;
60675;SDS011;46716;38.014;-7.874;2022-11-20T06:37:59;11.98;;;4.50;;
60675;SDS011;46716;38.014;-7.874;2022-11-20T06:40:03;14.65;;;3.90;;
60675;SDS011;46716;38.014;-7.874;2022-11-20T06:42:04;15.02;;;4.13;;
60675;SDS011;46716;38.014;-7.874;2022-11-20T06:44:26;9.85;;;3.67;;
60675;SDS011;46716;38.014;-7.874;2022-11-20T06:46:27;9.27;;;3.85;;
60675;SDS011;46716;38.014;-7.874;2022-11-20T06:48:29;11.63;;;4.15;;
60675;SDS011;46716;38.014;-7.874;2022-11-20T06:50:40;11.73;;;3.60;;
60675;SDS011;46716;38.014;-7.874;2022-11-20T06:52:45;10.95;;;4.25;;
60675;SDS011;46716;38.014;-7.874;2022-11-20T06:54:49;9.95;;;3.85;;
60675;SDS011;46716;38.014;-7.874;2022-11-20T06:56:50;11.18;;;4.20;;
60675;SDS011;46716;38.014;-7.874;2022-11-20T06:58:51;12.82;;;4.63;;
60675;SDS011;46716;38.014;-7.874;2022-11-20T07:00:51;9.75;;;3.80;;
60675;SDS011;46716;38.014;-7.874;2022-11-20T07:02:53;10.75;;;3.35;;
60675;SDS011;46716;38.014;-7.874;2022-11-20T07:04:53;11.95;;;3.92;;
60675;SDS011;46716;38.014;-7.874;2022-11-20T07:06:54;10.07;;;4.22;;
60675;SDS011;46716;38.014;-7.874;2022-11-20T07:09:01;9.52;;;3.05;;
60675;SDS011;46716;38.014;-7.874;2022-11-20T07:13:12;10.45;;;4.13;;
60675;SDS011;46716;38.014;-7.874;2022-11-20T07:15:13;8.95;;;3.72;;
60675;SDS011;46716;38.014;-7.874;2022-11-20T07:17:21;8.30;;;3.42;;
60675;SDS011;46716;38.014;-7.874;2022-11-20T07:19:22;11.07;;;3.67;;
60675;SDS011;46716;38.014;-7.874;2022-11-20T07:21:23;12.13;;;4.00;;
60675;SDS011;46716;38.014;-7.874;2022-11-20T07:23:24;6.78;;;2.72;;
60675;SDS011;46716;38.014;-7.874;2022-11-20T07:25:25;9.32;;;3.05;;
60675;SDS011;46716;38.014;-7.874;2022-11-20T07:27:27;10.75;;;4.00;;
60675;SDS011;46716;38.014;-7.874;2022-11-20T07:29:34;7.15;;;3.13;;
60675;SDS011;46716;38.014;-7.874;2022-11-20T07:35:45;10.07;;;3.42;;
60675;SDS011;46716;38.014;-7.874;2022-11-20T07:37:46;8.13;;;3.40;;
60675;SDS011;46716;38.014;-7.874;2022-11-20T07:39:48;10.65;;;3.63;;
60675;SDS011;46716;38.014;-7.874;2022-11-20T07:41:49;9.00;;;3.05;;
60675;SDS011;46716;38.014;-7.874;2022-11-20T07:43:50;8.48;;;3.33;;
60675;SDS011;46716;38.014;-7.874;2022-11-20T07:45:51;9.70;;;3.83;;
60675;SDS011;46716;38.014;-7.874;2022-11-20T07:47:53;13.23;;;4.32;;
60675;SDS011;46716;38.014;-7.874;2022-11-20T07:49:54;13.23;;;4.35;;
60675;SDS011;46716;38.014;-7.874;2022-11-20T07:51:55;8.55;;;4.00;;
60675;SDS011;46716;38.014;-7.874;2022-11-20T07:53:56;10.35;;;4.10;;
60675;SDS011;46716;38.014;-7.874;2022-11-20T07:56:01;8.23;;;3.47;;
60675;SDS011;46716;38.014;-7.874;2022-11-20T07:58:03;10.50;;;3.65;;
60675;SDS011;46716;38.014;-7.874;2022-11-20T08:00:04;14.13;;;4.35;;
60675;SDS011;46716;38.014;-7.874;2022-11-20T08:02:14;12.07;;;4.13;;
60675;SDS011;46716;38.014;-7.874;2022-11-20T08:04:18;9.55;;;3.80;;
60675;SDS011;46716;38.014;-7.874;2022-11-20T08:06:19;11.30;;;3.58;;
60675;SDS011;46716;38.014;-7.874;2022-11-20T08:08:20;12.35;;;3.90;;
60675;SDS011;46716;38.014;-7.874;2022-11-20T08:10:21;9.90;;;4.03;;
60675;SDS011;46716;38.014;-7.874;2022-11-20T08:12:22;11.25;;;3.78;;
60675;SDS011;46716;38.014;-7.874;2022-11-20T08:14:42;10.13;;;3.97;;
60675;SDS011;46716;38.014;-7.874;2022-11-20T08:16:44;12.00;;;4.20;;
60675;SDS011;46716;38.014;-7.874;2022-11-20T08:18:46;10.30;;;3.97;;
60675;SDS011;46716;38.014;-7.874;2022-11-20T08:20:48;9.77;;;4.05;;
60675;SDS011;46716;38.014;-7.874;2022-11-20T08:22:52;11.52;;;3.78;;
60675;SDS011;46716;38.014;-7.874;2022-11-20T08:24:53;14.80;;;3.97;;
60675;SDS011;46716;38.014;-7.874;2022-11-20T08:26:56;10.07;;;4.43;;
60675;SDS011;46716;38.014;-7.874;2022-11-20T08:28:59;7.82;;;3.60;;
60675;SDS011;46716;38.014;-7.874;2022-11-20T08:31:03;8.43;;;3.00;;
60675;SDS011;46716;38.014;-7.874;2022-11-20T08:33:07;9.93;;;3.85;;
60675;SDS011;46716;38.014;-7.874;2022-11-20T08:35:09;9.52;;;3.35;;
60675;SDS011;46716;38.014;-7.874;2022-11-20T08:37:10;9.35;;;3.60;;
60675;SDS011;46716;38.014;-7.874;2022-11-20T08:39:11;11.45;;;4.32;;
60675;SDS011;46716;38.014;-7.874;2022-11-20T08:41:14;8.55;;;3.60;;
60675;SDS011;46716;38.014;-7.874;2022-11-20T08:43:24;10.07;;;3.85;;
60675;SDS011;46716;38.014;-7.874;2022-11-20T08:45:25;9.43;;;3.92;;
60675;SDS011;46716;38.014;-7.874;2022-11-20T08:47:26;7.80;;;3.13;;
60675;SDS011;46716;38.014;-7.874;2022-11-20T08:49:30;10.73;;;3.50;;
60675;SDS011;46716;38.014;-7.874;2022-11-20T08:51:31;8.90;;;3.80;;
60675;SDS011;46716;38.014;-7.874;2022-11-20T08:53:32;11.57;;;3.60;;
60675;SDS011;46716;38.014;-7.874;2022-11-20T08:55:33;9.93;;;3.40;;
60675;SDS011;46716;38.014;-7.874;2022-11-20T08:57:37;15.88;;;3.70;;
60675;SDS011;46716;38.014;-7.874;2022-11-20T08:59:39;11.88;;;3.88;;
60675;SDS011;46716;38.014;-7.874;2022-11-20T09:01:40;7.93;;;3.30;;
60675;SDS011;46716;38.014;-7.874;2022-11-20T09:03:43;12.50;;;3.97;;
60675;SDS011;46716;38.014;-7.874;2022-11-20T09:05:44;9.77;;;3.45;;
60675;SDS011;46716;38.014;-7.874;2022-11-20T09:07:52;12.18;;;4.38;;
60675;SDS011;46716;38.014;-7.874;2022-11-20T09:09:56;9.98;;;3.75;;
60675;SDS011;46716;38.014;-7.874;2022-11-20T09:11:57;10.50;;;3.53;;
60675;SDS011;46716;38.014;-7.874;2022-11-20T09:13:58;11.02;;;3.40;;
60675;SDS011;46716;38.014;-7.874;2022-11-20T09:15:59;10.70;;;3.83;;
60675;SDS011;46716;38.014;-7.874;2022-11-20T09:18:10;8.77;;;3.42;;
60675;SDS011;46716;38.014;-7.874;2022-11-20T09:20:13;9.95;;;3.20;;
60675;SDS011;46716;38.014;-7.874;2022-11-20T09:22:14;11.35;;;3.83;;
60675;SDS011;46716;38.014;-7.874;2022-11-20T09:24:15;11.82;;;3.63;;
60675;SDS011;46716;38.014;-7.874;2022-11-20T09:26:16;12.00;;;3.55;;
60675;SDS011;46716;38.014;-7.874;2022-11-20T09:28:18;9.93;;;4.05;;
60675;SDS011;46716;38.014;-7.874;2022-11-20T09:30:19;16.67;;;3.42;;
60675;SDS011;46716;38.014;-7.874;2022-11-20T09:32:20;10.48;;;3.28;;
60675;SDS011;46716;38.014;-7.874;2022-11-20T09:34:20;9.23;;;3.55;;
60675;SDS011;46716;38.014;-7.874;2022-11-20T09:36:21;12.40;;;2.80;;
60675;SDS011;46716;38.014;-7.874;2022-11-20T09:38:22;11.43;;;3.05;;
60675;SDS011;46716;38.014;-7.874;2022-11-20T09:40:24;9.18;;;2.88;;
60675;SDS011;46716;38.014;-7.874;2022-11-20T09:42:41;11.05;;;3.00;;
60675;SDS011;46716;38.014;-7.874;2022-11-20T09:50:07;10.30;;;3.05;;
60675;SDS011;46716;38.014;-7.874;2022-11-20T09:52:39;9.68;;;3.22;;
60675;SDS011;46716;38.014;-7.874;2022-11-20T09:54:55;9.63;;;2.90;;
60675;SDS011;46716;38.014;-7.874;2022-11-20T09:57:01;8.02;;;2.85;;
60675;SDS011;46716;38.014;-7.874;2022-11-20T09:59:06;8.60;;;2.75;;
60675;SDS011;46716;38.014;-7.874;2022-11-20T10:03:22;8.68;;;2.65;;
60675;SDS011;46716;38.014;-7.874;2022-11-20T10:05:41;11.57;;;2.65;;
60675;SDS011;46716;38.014;-7.874;2022-11-20T10:07:58;8.00;;;2.85;;
60675;SDS011;46716;38.014;-7.874;2022-11-20T10:10:21;7.65;;;2.72;;
60675;SDS011;46716;38.014;-7.874;2022-11-20T10:14:48;10.70;;;3.65;;
60675;SDS011;46716;38.014;-7.874;2022-11-20T10:17:09;10.85;;;3.50;;
60675;SDS011;46716;38.014;-7.874;2022-11-20T10:26:31;9.00;;;2.78;;
60675;SDS011;46716;38.014;-7.874;2022-11-20T10:29:00;9.25;;;3.08;;
60675;SDS011;46716;38.014;-7.874;2022-11-20T10:31:27;7.70;;;3.20;;
60675;SDS011;46716;38.014;-7.874;2022-11-20T10:33:41;7.03;;;2.53;;
60675;SDS011;46716;38.014;-7.874;2022-11-20T10:36:15;8.30;;;2.83;;
60675;SDS011;46716;38.014;-7.874;2022-11-20T10:38:34;6.65;;;2.50;;
60675;SDS011;46716;38.014;-7.874;2022-11-20T10:40:45;10.13;;;3.05;;
60675;SDS011;46716;38.014;-7.874;2022-11-20T10:42:53;6.30;;;2.17;;
60675;SDS011;46716;38.014;-7.874;2022-11-20T10:47:33;6.63;;;2.50;;
60675;SDS011;46716;38.014;-7.874;2022-11-20T10:49:34;5.95;;;2.25;;
60675;SDS011;46716;38.014;-7.874;2022-11-20T10:51:40;11.13;;;2.20;;
60675;SDS011;46716;38.014;-7.874;2022-11-20T10:54:03;7.95;;;2.17;;
60675;SDS011;46716;38.014;-7.874;2022-11-20T10:58:45;19.60;;;5.43;;
60675;SDS011;46716;38.014;-7.874;2022-11-20T11:01:06;7.03;;;2.15;;
60675;SDS011;46716;38.014;-7.874;2022-11-20T11:07:39;4.88;;;1.85;;
60675;SDS011;46716;38.014;-7.874;2022-11-20T11:09:43;6.20;;;2.13;;
60675;SDS011;46716;38.014;-7.874;2022-11-20T11:11:48;6.18;;;1.92;;
60675;SDS011;46716;38.014;-7.874;2022-11-20T11:13:49;6.57;;;1.80;;
60675;SDS011;46716;38.014;-7.874;2022-11-20T11:15:50;6.63;;;1.60;;
60675;SDS011;46716;38.014;-7.874;2022-11-20T11:17:52;6.77;;;1.57;;
60675;SDS011;46716;38.014;-7.874;2022-11-20T11:19:56;4.05;;;1.40;;
60675;SDS011;46716;38.014;-7.874;2022-11-20T11:22:16;4.50;;;1.60;;
60675;SDS011;46716;38.014;-7.874;2022-11-20T11:26:29;4.72;;;1.70;;
60675;SDS011;46716;38.014;-7.874;2022-11-20T11:28:33;5.82;;;1.63;;
60675;SDS011;46716;38.014;-7.874;2022-11-20T11:30:41;6.43;;;1.58;;
60675;SDS011;46716;38.014;-7.874;2022-11-20T11:32:44;4.30;;;1.35;;
60675;SDS011;46716;38.014;-7.874;2022-11-20T11:34:58;5.00;;;1.43;;
60675;SDS011;46716;38.014;-7.874;2022-11-20T11:37:00;6.00;;;1.85;;
60675;SDS011;46716;38.014;-7.874;2022-11-20T11:39:04;6.95;;;1.73;;
60675;SDS011;46716;38.014;-7.874;2022-11-20T11:41:21;8.35;;;1.77;;
60675;SDS011;46716;38.014;-7.874;2022-11-20T11:43:26;4.63;;;1.83;;
60675;SDS011;46716;38.014;-7.874;2022-11-20T11:45:56;6.85;;;1.60;;
60675;SDS011;46716;38.014;-7.874;2022-11-20T11:47:58;5.88;;;1.90;;
60675;SDS011;46716;38.014;-7.874;2022-11-20T11:52:18;5.35;;;1.65;;
60675;SDS011;46716;38.014;-7.874;2022-11-20T11:56:48;8.63;;;2.20;;
60675;SDS011;46716;38.014;-7.874;2022-11-20T11:58:50;8.57;;;2.75;;
60675;SDS011;46716;38.014;-7.874;2022-11-20T12:01:02;6.88;;;2.25;;
60675;SDS011;46716;38.014;-7.874;2022-11-20T12:03:21;5.32;;;2.20;;
60675;SDS011;46716;38.014;-7.874;2022-11-20T12:05:37;7.32;;;2.30;;
60675;SDS011;46716;38.014;-7.874;2022-11-20T12:09:49;9.50;;;2.30;;
60675;SDS011;46716;38.014;-7.874;2022-11-20T12:14:29;5.75;;;2.30;;
60675;SDS011;46716;38.014;-7.874;2022-11-20T12:16:35;6.70;;;3.08;;
60675;SDS011;46716;38.014;-7.874;2022-11-20T12:18:38;6.05;;;2.78;;
60675;SDS011;46716;38.014;-7.874;2022-11-20T12:20:41;7.47;;;2.15;;
60675;SDS011;46716;38.014;-7.874;2022-11-20T12:23:02;7.70;;;2.40;;
60675;SDS011;46716;38.014;-7.874;2022-11-20T12:25:11;7.78;;;2.10;;
60675;SDS011;46716;38.014;-7.874;2022-11-20T12:34:41;7.97;;;2.63;;
60675;SDS011;46716;38.014;-7.874;2022-11-20T12:44:32;8.30;;;2.30;;
60675;SDS011;46716;38.014;-7.874;2022-11-20T12:47:17;7.90;;;2.38;;
60675;SDS011;46716;38.014;-7.874;2022-11-20T12:49:37;7.40;;;2.05;;
60675;SDS011;46716;38.014;-7.874;2022-11-20T12:51:54;7.40;;;1.90;;
60675;SDS011;46716;38.014;-7.874;2022-11-20T12:56:19;4.57;;;1.90;;
60675;SDS011;46716;38.014;-7.874;2022-11-20T12:58:40;9.77;;;2.90;;
60675;SDS011;46716;38.014;-7.874;2022-11-20T13:00:55;8.55;;;2.13;;
60675;SDS011;46716;38.014;-7.874;2022-11-20T13:10:33;11.05;;;2.88;;
60675;SDS011;46716;38.014;-7.874;2022-11-20T13:15:42;8.65;;;3.13;;
60675;SDS011;46716;38.014;-7.874;2022-11-20T13:17:55;10.45;;;2.28;;
60675;SDS011;46716;38.014;-7.874;2022-11-20T13:20:01;8.15;;;2.55;;
60675;SDS011;46716;38.014;-7.874;2022-11-20T13:22:02;4.78;;;2.15;;
60675;SDS011;46716;38.014;-7.874;2022-11-20T13:26:23;7.68;;;2.75;;
60675;SDS011;46716;38.014;-7.874;2022-11-20T13:30:32;6.85;;;2.58;;
60675;SDS011;46716;38.014;-7.874;2022-11-20T13:33:38;9.23;;;2.55;;
60675;SDS011;46716;38.014;-7.874;2022-11-20T13:36:23;7.85;;;2.25;;
60675;SDS011;46716;38.014;-7.874;2022-11-20T13:38:58;7.07;;;2.00;;
60675;SDS011;46716;38.014;-7.874;2022-11-20T13:41:23;8.95;;;2.47;;
60675;SDS011;46716;38.014;-7.874;2022-11-20T13:49:26;7.35;;;2.28;;
60675;SDS011;46716;38.014;-7.874;2022-11-20T14:00:48;6.40;;;2.45;;
60675;SDS011;46716;38.014;-7.874;2022-11-20T14:03:10;9.10;;;2.13;;
60675;SDS011;46716;38.014;-7.874;2022-11-20T14:05:22;7.80;;;1.77;;
60675;SDS011;46716;38.014;-7.874;2022-11-20T14:07:35;10.32;;;2.90;;
60675;SDS011;46716;38.014;-7.874;2022-11-20T14:09:48;6.35;;;1.95;;
60675;SDS011;46716;38.014;-7.874;2022-11-20T14:11:54;6.55;;;2.10;;
60675;SDS011;46716;38.014;-7.874;2022-11-20T14:15:58;7.70;;;1.73;;
60675;SDS011;46716;38.014;-7.874;2022-11-20T14:17:59;5.70;;;1.75;;
60675;SDS011;46716;38.014;-7.874;2022-11-20T14:20:15;7.47;;;1.70;;